.
WxDataArchive / Data Records for 2006-01-25
2006-01-24 January 2006 2006-01-26

Data Records for Wednesday, 25 January 2006

Time	Temp	Chill	HIndex	Humid	Dewpt	 Wind 	HiWind	WindDir	Rain 	Barom 
-----	----	-----	------	-----	-----	------	------	-------	-----	----- 
00:00	32.4	27.5	32.4	77	26.0	5	11	270	0.00	29.845 
00:05	32.4	27.5	32.4	76	25.7	5	14	292	0.00	29.845 
00:10	32.2	28.3	32.2	75	25.2	4	9	315	0.00	29.845 
00:15	32.2	28.3	32.2	74	24.9	4	11	315	0.00	29.851 
00:20	32.1	28.2	32.1	73	24.4	4	7	270	0.00	29.851 
00:25	31.9	28.0	31.9	73	24.2	4	10	315	0.00	29.851 
00:30	31.9	31.9	31.9	73	24.2	3	9	270	0.00	29.858 
00:35	31.8	31.8	31.8	74	24.5	3	8	270	0.00	29.858 
00:40	31.6	31.6	31.6	73	24.0	3	7	270	0.00	29.858 
00:45	31.8	31.8	31.8	74	24.5	3	7	315	0.00	29.868 
00:50	31.8	31.8	31.8	73	24.1	3	13	338	0.00	29.868 
00:55	31.8	27.8	31.8	73	24.1	4	10	270	0.00	29.868 
01:00	31.8	31.8	31.8	73	24.1	3	10	292	0.00	29.874 
01:05	31.8	31.8	31.8	73	24.1	3	9	338	0.00	29.874 
01:10	31.8	31.8	31.8	73	24.1	3	11	315	0.00	29.874 
01:15	31.8	27.8	31.8	73	24.1	4	13	270	0.00	29.882 
01:20	31.8	27.8	31.8	73	24.1	4	13	315	0.00	29.882 
01:25	31.9	28.0	31.9	73	24.2	4	11	315	0.00	29.882 
01:30	31.9	31.9	31.9	73	24.2	3	9	270	0.00	29.889 
01:35	31.8	31.8	31.8	72	23.8	3	7	292	0.00	29.889 
01:40	31.8	27.8	31.8	70	23.2	4	13	292	0.00	29.889 
01:45	31.9	28.0	31.9	68	22.6	4	9	270	0.00	29.898 
01:50	31.9	31.9	31.9	67	22.2	3	11	315	0.00	29.898 
01:55	31.9	28.0	31.9	66	21.9	4	9	270	0.00	29.898 
02:00	32.1	32.1	32.1	66	22.0	3	5	270	0.00	29.901 
02:05	32.1	28.2	32.1	64	21.3	4	11	292	0.00	29.901 
02:10	32.1	32.1	32.1	65	21.7	3	9	315	0.00	29.901 
02:15	32.1	28.2	32.1	65	21.7	4	10	292	0.00	29.910 
02:20	32.1	28.2	32.1	65	21.7	4	7	292	0.00	29.910 
02:25	31.9	28.0	31.9	64	21.1	4	7	270	0.00	29.910 
02:30	31.9	31.9	31.9	65	21.5	3	7	292	0.00	29.916 
02:35	31.9	28.0	31.9	65	21.5	4	7	292	0.00	29.916 
02:40	31.9	28.0	31.9	63	20.8	4	13	315	0.00	29.916 
02:45	32.1	32.1	32.1	64	21.3	3	10	292	0.00	29.928 
02:50	31.9	31.9	31.9	65	21.5	3	11	315	0.00	29.928 
02:55	31.9	31.9	31.9	64	21.1	3	11	292	0.00	29.928 
03:00	31.9	28.0	31.9	65	21.5	4	11	315	0.00	29.936 
03:05	31.9	27.0	31.9	63	20.8	5	11	338	0.00	29.936 
03:10	31.9	28.0	31.9	65	21.5	4	15	338	0.00	29.936 
03:15	31.9	28.0	31.9	65	21.5	4	11	315	0.00	29.942 
03:20	31.8	31.8	31.8	65	21.4	2	9	292	0.00	29.942 
03:25	31.8	31.8	31.8	65	21.4	3	9	315	0.00	29.942 
03:30	31.8	31.8	31.8	66	21.8	2	5	270	0.00	29.943 
03:35	31.6	31.6	31.6	66	21.6	2	6	270	0.00	29.943 
03:40	31.6	31.6	31.6	66	21.6	2	6	270	0.00	29.943 
03:45	31.6	31.6	31.6	67	21.9	2	5	315	0.00	29.944 
03:50	31.6	31.6	31.6	68	22.3	2	6	315	0.00	29.944 
03:55	31.6	31.6	31.6	68	22.3	2	6	270	0.00	29.944 
04:00	31.5	31.5	31.5	69	22.5	2	4	270	0.00	29.948 
04:05	31.5	31.5	31.5	70	22.9	2	6	270	0.00	29.948 
04:10	31.5	31.5	31.5	71	23.2	2	6	248	0.00	29.948 
04:15	31.5	31.5	31.5	72	23.5	2	4	292	0.00	29.957 
04:20	31.5	31.5	31.5	72	23.5	3	7	270	0.00	29.957 
04:25	31.3	31.3	31.3	73	23.7	3	6	270	0.00	29.957 
04:30	31.3	31.3	31.3	73	23.7	3	7	270	0.00	29.960 
04:35	31.3	31.3	31.3	74	24.0	3	7	270	0.00	29.960 
04:40	31.3	31.3	31.3	75	24.3	3	5	270	0.00	29.960 
04:45	31.3	31.3	31.3	76	24.6	2	6	270	0.00	29.961 
04:50	31.3	31.3	31.3	76	24.6	3	6	270	0.00	29.961 
04:55	31.5	31.5	31.5	76	24.8	2	5	270	0.00	29.961 
05:00	31.5	31.5	31.5	76	24.8	2	12	270	0.00	29.964 
05:05	31.6	31.6	31.6	75	24.6	3	7	270	0.00	29.964 
05:10	31.6	31.6	31.6	75	24.6	3	10	270	0.00	29.964 
05:15	31.8	31.8	31.8	74	24.5	3	11	270	0.00	29.976 
05:20	31.8	31.8	31.8	75	24.8	2	4	292	0.00	29.976 
05:25	31.8	31.8	31.8	74	24.5	3	6	270	0.00	29.976 
05:30	31.9	31.9	31.9	73	24.2	3	9	270	0.00	29.984 
05:35	31.9	31.9	31.9	73	24.2	3	6	292	0.00	29.984 
05:40	31.9	31.9	31.9	74	24.6	3	11	270	0.00	29.984 
05:45	31.9	31.9	31.9	74	24.6	3	13	270	0.00	29.991 
05:50	31.9	31.9	31.9	74	24.6	3	7	270	0.00	29.991 
05:55	31.8	31.8	31.8	75	24.8	2	4	270	0.00	29.991 
06:00	31.8	31.8	31.8	75	24.8	2	5	315	0.00	29.994 
06:05	31.8	31.8	31.8	75	24.8	2	5	270	0.00	29.994 
06:10	31.8	31.8	31.8	75	24.8	2	6	270	0.00	29.994 
06:15	31.9	31.9	31.9	74	24.6	3	7	315	0.00	30.003 
06:20	32.1	32.1	32.1	72	24.1	3	6	315	0.00	30.003 
06:25	32.2	28.3	32.2	72	24.2	4	11	270	0.00	30.003 
06:30	32.2	28.3	32.2	71	23.9	4	9	270	0.00	30.007 
06:35	32.2	32.2	32.2	71	23.9	3	8	270	0.00	30.007 
06:40	32.2	32.2	32.2	71	23.9	3	7	292	0.00	30.007 
06:45	32.2	32.2	32.2	72	24.2	3	7	270	0.00	30.015 
06:50	32.1	32.1	32.1	72	24.1	3	7	292	0.00	30.015 
06:55	32.1	28.2	32.1	71	23.8	4	16	292	0.00	30.015 
07:00	32.1	28.2	32.1	72	24.1	4	7	270	0.00	30.023 
07:05	32.1	28.2	32.1	72	24.1	4	10	270	0.00	30.023 
07:10	31.9	28.0	31.9	74	24.6	4	13	270	0.00	30.023 
07:15	31.8	31.8	31.8	75	24.8	3	6	292	0.00	30.041 
07:20	31.6	31.6	31.6	76	24.9	2	5	292	0.00	30.041 
07:25	31.5	31.5	31.5	77	25.1	2	6	315	0.00	30.041 
07:30	31.3	31.3	31.3	77	24.9	2	4	315	0.00	30.046 
07:35	31.3	31.3	31.3	75	24.3	3	8	270	0.00	30.046 
07:40	31.3	26.3	31.3	74	24.0	5	12	270	0.00	30.046 
07:45	31.3	31.3	31.3	74	24.0	3	7	315	0.00	30.057 
07:50	31.3	31.3	31.3	74	24.0	2	5	292	0.00	30.057 
07:55	31.2	31.2	31.2	75	24.2	2	7	292	0.00	30.057 
08:00	31.0	31.0	31.0	75	24.0	2	9	315	0.00	30.072 
08:05	30.9	30.9	30.9	75	23.9	3	6	270	0.00	30.072 
08:10	30.9	30.9	30.9	75	23.9	3	7	315	0.00	30.072 
08:15	30.7	30.7	30.7	77	24.4	2	5	292	0.00	30.080 
08:20	30.7	30.7	30.7	76	24.0	3	7	270	0.00	30.080 
08:25	30.7	30.7	30.7	76	24.0	3	7	270	0.00	30.080 
08:30	30.7	30.7	30.7	76	24.0	3	10	270	0.00	30.091 
08:35	30.7	30.7	30.7	75	23.7	3	6	292	0.00	30.091 
08:40	30.7	30.7	30.7	75	23.7	3	9	292	0.00	30.091 
08:45	30.6	30.6	30.6	75	23.6	3	9	338	0.00	30.100 
08:50	30.6	30.6	30.6	76	24.0	3	12	270	0.00	30.100 
08:55	30.6	30.6	30.6	76	24.0	3	10	292	0.00	30.100 
09:00	30.6	30.6	30.6	76	24.0	3	13	270	0.00	30.106 
09:05	30.6	30.6	30.6	75	23.6	3	7	338	0.00	30.106 
09:10	30.7	30.7	30.7	75	23.7	2	5	315	0.00	30.106 
09:15	30.7	30.7	30.7	75	23.7	3	6	292	0.00	30.115 
09:20	30.7	30.7	30.7	76	24.0	2	5	270	0.00	30.115 
09:25	30.9	26.8	30.9	75	23.9	4	12	270	0.00	30.115 
09:30	30.9	30.9	30.9	76	24.2	3	6	292	0.00	30.122 
09:35	30.9	30.9	30.9	76	24.2	3	11	270	0.00	30.122 
09:40	31.0	31.0	31.0	76	24.3	2	6	270	0.00	30.122 
09:45	31.0	26.9	31.0	75	24.0	4	10	270	0.00	30.123 
09:50	31.2	31.2	31.2	75	24.2	3	9	270	0.00	30.123 
09:55	31.3	31.3	31.3	73	23.7	2	6	315	0.00	30.123 
10:00	31.5	31.5	31.5	73	23.9	3	7	270	0.00	30.136 
10:05	31.6	31.6	31.6	72	23.6	3	7	292	0.00	30.136 
10:10	31.8	31.8	31.8	72	23.8	3	7	270	0.00	30.136 
10:15	31.9	31.9	31.9	72	23.9	3	9	292	0.00	30.147 
10:20	32.4	32.4	32.4	72	24.4	2	7	315	0.00	30.147 
10:25	32.7	32.7	32.7	70	24.0	3	9	270	0.00	30.147 
10:30	32.4	28.5	32.4	71	24.1	4	9	315	0.00	30.158 
10:35	32.7	32.7	32.7	69	23.7	3	10	315	0.00	30.158 
10:40	32.5	32.5	32.5	70	23.8	3	7	292	0.00	30.158 
10:45	32.5	28.7	32.5	70	23.8	4	7	315	0.00	30.169 
10:50	32.4	32.4	32.4	71	24.1	3	10	292	0.00	30.169 
10:55	32.7	32.7	32.7	71	24.4	2	5	315	0.00	30.169 
11:00	32.9	32.9	32.9	69	23.9	3	9	270	0.00	30.173 
11:05	33.1	33.1	33.1	69	24.1	2	6	292	0.00	30.173 
11:10	33.5	33.5	33.5	69	24.4	3	7	292	0.00	30.173 
11:15	33.5	33.5	33.5	68	24.1	2	7	315	0.00	30.178 
11:20	33.7	33.7	33.7	68	24.3	3	9	292	0.00	30.178 
11:25	33.4	33.4	33.4	68	24.0	3	9	315	0.00	30.178 
11:30	33.1	33.1	33.1	67	23.4	3	8	292	0.00	30.188 
11:35	33.1	29.3	33.1	66	23.0	4	11	270	0.00	30.188 
11:40	32.9	32.9	32.9	67	23.2	3	6	315	0.00	30.188 
11:45	33.2	33.2	33.2	67	23.4	3	7	292	0.00	30.189 
11:50	33.4	33.4	33.4	67	23.6	3	9	338	0.00	30.189 
11:55	33.4	29.7	33.4	65	22.9	4	11	292	0.00	30.189 
12:00	33.2	29.5	33.2	66	23.1	4	11	338	0.00	30.190 
12:05	34.1	34.1	34.1	67	24.3	3	7	292	0.00	30.190 
12:10	34.0	30.4	34.0	64	23.1	4	11	270	0.00	30.190 
12:15	34.1	34.1	34.1	64	23.2	3	7	315	0.00	30.190 
12:20	34.0	34.0	34.0	64	23.1	3	9	315	0.00	30.190 
12:25	34.0	30.4	34.0	64	23.1	4	14	292	0.00	30.190 
12:30	34.0	34.0	34.0	63	22.7	3	7	292	0.00	30.191 
12:35	34.0	34.0	34.0	63	22.7	3	9	338	0.00	30.191 
12:40	33.8	33.8	33.8	65	23.3	3	10	315	0.00	30.191 
12:45	33.5	29.8	33.5	65	23.0	4	12	315	0.00	30.194 
12:50	33.5	29.8	33.5	66	23.4	4	11	315	0.00	30.194 
12:55	33.5	33.5	33.5	65	23.0	3	11	292	0.00	30.194 
13:00	33.7	29.1	33.7	65	23.2	5	16	270	0.00	30.195 
13:05	33.8	30.2	33.8	65	23.3	4	11	338	0.00	30.195 
13:10	33.7	33.7	33.7	65	23.2	3	9	315	0.00	30.195 
13:15	33.5	29.8	33.5	66	23.4	4	9	270	0.00	30.200 
13:20	33.2	29.5	33.2	69	24.2	4	9	292	0.00	30.200 
13:25	33.2	29.5	33.2	69	24.2	4	9	315	0.00	30.200 
13:30	33.4	33.4	33.4	68	24.0	3	6	315	0.00	30.204 
13:35	33.2	28.5	33.2	68	23.8	5	13	315	0.00	30.204 
13:40	33.4	29.7	33.4	68	24.0	4	9	338	0.00	30.204 
13:45	33.8	33.8	33.8	66	23.7	3	9	270	0.01	30.202 
13:50	34.0	34.0	34.0	68	24.6	3	7	292	0.00	30.202 
13:55	34.0	30.4	34.0	64	23.1	4	11	292	0.00	30.202 
14:00	34.3	30.7	34.3	63	23.0	4	8	270	0.00	30.201 
14:05	34.1	30.5	34.1	63	22.8	4	9	315	0.00	30.201 
14:10	34.1	34.1	34.1	63	22.8	3	9	315	0.00	30.201 
14:15	34.0	30.4	34.0	64	23.1	4	19	270	0.00	30.207 
14:20	33.8	30.2	33.8	64	22.9	4	9	338	0.00	30.207 
14:25	33.4	29.7	33.4	66	23.3	4	10	292	0.00	30.207 
14:30	33.2	33.2	33.2	68	23.8	3	7	292	0.00	30.209 
14:35	33.1	29.3	33.1	67	23.4	4	7	315	0.00	30.209 
14:40	32.9	29.1	32.9	68	23.5	4	10	315	0.00	30.209 
14:45	33.1	33.1	33.1	68	23.7	3	10	292	0.00	30.217 
14:50	33.2	33.2	33.2	69	24.2	3	6	292	0.00	30.217 
14:55	33.2	33.2	33.2	69	24.2	3	9	292	0.00	30.217 
15:00	33.2	29.5	33.2	66	23.1	4	10	292	0.00	30.221 
15:05	33.1	29.3	33.1	67	23.4	4	10	338	0.00	30.221 
15:10	33.1	29.3	33.1	68	23.7	4	10	315	0.00	30.221 
15:15	33.2	29.5	33.2	67	23.4	4	9	270	0.00	30.232 
15:20	33.1	28.4	33.1	67	23.4	5	16	270	0.00	30.232 
15:25	33.1	33.1	33.1	67	23.4	3	8	315	0.00	30.232 
15:30	33.2	33.2	33.2	66	23.1	3	7	292	0.00	30.233 
15:35	33.2	29.5	33.2	66	23.1	4	9	338	0.00	30.233 
15:40	33.4	33.4	33.4	67	23.6	2	5	270	0.00	30.233 
15:45	33.4	33.4	33.4	68	24.0	2	5	270	0.00	30.235 
15:50	33.1	33.1	33.1	69	24.1	3	7	270	0.00	30.235 
15:55	32.9	32.9	32.9	70	24.2	3	7	270	0.00	30.235 
16:00	32.8	32.8	32.8	69	23.8	3	10	270	0.00	30.238 
16:05	32.8	29.0	32.8	70	24.1	4	12	270	0.00	30.238 
16:10	32.8	32.8	32.8	70	24.1	3	10	292	0.00	30.238 
16:15	32.8	32.8	32.8	70	24.1	2	5	270	0.00	30.247 
16:20	32.7	32.7	32.7	70	24.0	3	7	292	0.00	30.247 
16:25	32.5	32.5	32.5	71	24.2	2	8	315	0.00	30.247 
16:30	32.5	32.5	32.5	69	23.5	2	6	292	0.00	30.255 
16:35	32.5	32.5	32.5	69	23.5	3	6	315	0.00	30.255 
16:40	32.4	28.5	32.4	67	22.7	4	9	338	0.00	30.255 
16:45	32.2	28.3	32.2	67	22.5	4	10	315	0.00	30.262 
16:50	32.2	32.2	32.2	67	22.5	3	10	292	0.00	30.262 
16:55	32.1	32.1	32.1	68	22.7	3	9	315	0.00	30.262 
17:00	32.2	32.2	32.2	68	22.8	2	10	292	0.00	30.269 
17:05	32.1	32.1	32.1	66	22.0	3	7	315	0.00	30.269 
17:10	32.1	32.1	32.1	67	22.4	3	9	292	0.00	30.269 
17:15	31.9	31.9	31.9	68	22.6	3	8	338	0.00	30.275 
17:20	31.6	31.6	31.6	67	21.9	2	7	315	0.00	30.275 
17:25	31.5	31.5	31.5	67	21.8	3	6	292	0.00	30.275 
17:30	31.3	31.3	31.3	68	22.0	2	4	315	0.00	30.284 
17:35	31.2	31.2	31.2	69	22.2	2	3	315	0.00	30.284 
17:40	30.9	30.9	30.9	69	21.9	2	7	270	0.00	30.284 
17:45	30.9	30.9	30.9	67	21.3	2	7	315	0.00	30.284 
17:50	30.7	30.7	30.7	68	21.4	1	5	315	0.00	30.284 
17:55	30.7	30.7	30.7	68	21.4	1	3	292	0.00	30.284 
18:00	30.7	30.7	30.7	68	21.4	1	5	338	0.00	30.293 
18:05	30.9	30.9	30.9	68	21.6	2	5	315	0.00	30.293 
18:10	30.9	30.9	30.9	67	21.3	1	4	292	0.00	30.293 
18:15	30.7	30.7	30.7	67	21.1	2	7	315	0.00	30.298 
18:20	30.7	30.7	30.7	68	21.4	1	7	315	0.00	30.298 
18:25	30.4	30.4	30.4	68	21.1	1	5	292	0.00	30.298 
18:30	30.3	30.3	30.3	69	21.4	2	5	270	0.00	30.304 
18:35	30.3	30.3	30.3	69	21.4	2	6	292	0.00	30.304 
18:40	30.1	30.1	30.1	69	21.2	2	6	315	0.00	30.304 
18:45	30.1	30.1	30.1	69	21.2	2	10	338	0.00	30.313 
18:50	30.1	30.1	30.1	69	21.2	1	5	315	0.00	30.313 
18:55	30.0	30.0	30.0	69	21.1	1	4	338	0.00	30.313 
19:00	30.1	30.1	30.1	68	20.8	3	7	270	0.00	30.316 
19:05	30.1	30.1	30.1	68	20.8	2	4	292	0.00	30.316 
19:10	30.1	30.1	30.1	67	20.5	2	5	270	0.00	30.316 
19:15	30.3	30.3	30.3	66	20.3	2	5	292	0.00	30.323 
19:20	30.3	30.3	30.3	67	20.7	2	5	292	0.00	30.323 
19:25	30.3	30.3	30.3	67	20.7	2	5	315	0.00	30.323 
19:30	30.3	30.3	30.3	67	20.7	2	5	292	0.00	30.329 
19:35	30.3	30.3	30.3	68	21.0	1	3	338	0.00	30.329 
19:40	30.4	30.4	30.4	66	20.4	3	9	270	0.00	30.329 
19:45	30.6	30.6	30.6	67	21.0	2	7	315	0.00	30.333 
19:50	30.6	30.6	30.6	67	21.0	2	7	292	0.00	30.333 
19:55	30.6	30.6	30.6	65	20.3	2	6	315	0.00	30.333 
20:00	30.6	30.6	30.6	65	20.3	2	6	270	0.00	30.344 
20:05	30.6	30.6	30.6	64	19.9	2	5	338	0.00	30.344 
20:10	30.6	30.6	30.6	65	20.3	2	7	338	0.00	30.344 
20:15	30.6	30.6	30.6	65	20.3	2	6	270	0.00	30.346 
20:20	30.6	30.6	30.6	65	20.3	2	7	315	0.00	30.346 
20:25	30.6	30.6	30.6	65	20.3	2	6	338	0.00	30.346 
20:30	30.6	30.6	30.6	66	20.6	2	5	338	0.00	30.348 
20:35	30.6	30.6	30.6	67	21.0	2	4	292	0.00	30.348 
20:40	30.6	30.6	30.6	67	21.0	1	5	270	0.00	30.348 
20:45	30.6	30.6	30.6	67	21.0	1	4	338	0.00	30.353 
20:50	30.6	30.6	30.6	67	21.0	2	5	270	0.00	30.353 
20:55	30.6	30.6	30.6	67	21.0	2	4	270	0.00	30.353 
21:00	30.6	30.6	30.6	66	20.6	1	3	248	0.00	30.360 
21:05	30.6	30.6	30.6	66	20.6	2	15	270	0.00	30.360 
21:10	30.7	30.7	30.7	63	19.6	3	7	292	0.00	30.360 
21:15	30.7	30.7	30.7	63	19.6	2	5	270	0.00	30.364 
21:20	30.7	30.7	30.7	63	19.6	2	4	338	0.00	30.364 
21:25	30.7	30.7	30.7	62	19.2	2	9	292	0.00	30.364 
21:30	30.9	30.9	30.9	63	19.8	3	6	315	0.00	30.370 
21:35	30.7	30.7	30.7	63	19.6	1	4	270	0.00	30.370 
21:40	30.7	30.7	30.7	63	19.6	2	6	315	0.00	30.370 
21:45	30.7	30.7	30.7	64	20.0	1	4	315	0.00	30.373 
21:50	30.7	30.7	30.7	63	19.6	1	3	315	0.00	30.373 
21:55	30.7	30.7	30.7	64	20.0	1	3	315	0.00	30.373 
22:00	30.7	30.7	30.7	64	20.0	1	4	315	0.00	30.373 
22:05	30.7	30.7	30.7	64	20.0	1	2	248	0.00	30.373 
22:10	30.7	30.7	30.7	64	20.0	1	3	315	0.00	30.373 
22:15	30.7	30.7	30.7	64	20.0	1	3	248	0.00	30.373 
22:20	30.7	30.7	30.7	64	20.0	1	3	270	0.00	30.373 
22:25	30.7	30.7	30.7	64	20.0	1	3	270	0.00	30.373 
22:30	30.9	30.9	30.9	64	20.2	1	3	270	0.00	30.375 
22:35	30.9	30.9	30.9	65	20.5	1	2	315	0.00	30.375 
22:40	30.9	30.9	30.9	65	20.5	1	3	292	0.00	30.375 
22:45	30.9	30.9	30.9	65	20.5	1	3	270	0.00	30.376 
22:50	30.7	30.7	30.7	65	20.3	1	4	248	0.00	30.376 
22:55	30.7	30.7	30.7	66	20.7	0	2	248	0.00	30.376 
23:00	30.7	30.7	30.7	66	20.7	0	1	248	0.00	30.375 
23:05	30.7	30.7	30.7	66	20.7	0	1	270	0.00	30.375 
23:10	30.7	30.7	30.7	66	20.7	0	2	270	0.00	30.375 
23:15	30.7	30.7	30.7	67	21.1	1	2	248	0.00	30.376 
23:20	30.7	30.7	30.7	67	21.1	0	1	248	0.00	30.376 
23:25	30.6	30.6	30.6	68	21.3	0	1	248	0.00	30.376 
23:30	30.6	30.6	30.6	68	21.3	0	1	248	0.00	30.377 
23:35	30.4	30.4	30.4	68	21.1	0	2	248	0.00	30.377 
23:40	30.4	30.4	30.4	69	21.5	0	1	248	0.00	30.377 
23:45	30.4	30.4	30.4	69	21.5	1	2	248	0.00	30.379 
23:50	30.4	30.4	30.4	69	21.5	0	1	248	0.00	30.379 
23:55	30.4	30.4	30.4	69	21.5	0	2	248	0.00	30.379 

CoCoRaHS
IN-AL-39
A2 Web Hosting
Creative Commons License
GoDaddy
Look for:

loaded 2017-10-19 14:43:37 • last modified 2010-11-18 10:43:29
Privacy PolicyDisclaimer
• wx.awcolley.com is powered by PmWiki v.2002016 •
• all content (unless otherwise noted) © 2017 A W Colley